createdAt,value
2022-10-19T00:00:51.283Z,3.63
2022-10-19T00:03:23.129Z,3.10
2022-10-19T00:05:51.185Z,3.40
2022-10-19T00:08:19.047Z,3.07
2022-10-19T00:10:46.967Z,3.20
2022-10-19T00:13:14.871Z,3.27
2022-10-19T00:15:43.424Z,3.30
2022-10-19T00:18:11.197Z,3.77
2022-10-19T00:20:40.385Z,4.20
2022-10-19T00:23:08.254Z,3.70
2022-10-19T00:25:37.011Z,3.73
2022-10-19T00:28:05.116Z,3.70
2022-10-19T00:30:32.949Z,3.67
2022-10-19T00:33:00.721Z,3.37
2022-10-19T00:35:28.568Z,3.60
2022-10-19T00:37:57.730Z,3.10
2022-10-19T00:40:25.580Z,4.00
2022-10-19T00:42:56.222Z,3.80
2022-10-19T00:45:24.085Z,3.40
2022-10-19T00:47:51.994Z,3.90
2022-10-19T00:50:20.261Z,3.90
2022-10-19T00:52:48.436Z,3.93
2022-10-19T00:55:18.054Z,3.33
2022-10-19T00:57:45.941Z,4.10
2022-10-19T01:00:14.693Z,3.47
2022-10-19T01:02:42.552Z,3.77
2022-10-19T01:05:11.342Z,3.33
2022-10-19T01:07:39.131Z,3.63
2022-10-19T01:10:07.947Z,3.37
2022-10-19T01:13:00.092Z,3.70
2022-10-19T01:15:35.637Z,3.33
2022-10-19T01:18:12.048Z,3.40
2022-10-19T01:21:06.527Z,3.40
2022-10-19T01:24:19.201Z,3.30
2022-10-19T01:27:29.581Z,3.20
2022-10-19T01:30:09.668Z,3.57
2022-10-19T01:32:54.028Z,3.50
2022-10-19T01:35:29.934Z,3.17
2022-10-19T01:38:09.134Z,4.13
2022-10-19T01:40:43.468Z,3.07
2022-10-19T01:43:21.505Z,3.53
2022-10-19T01:45:53.605Z,3.07
2022-10-19T01:48:24.345Z,3.97
2022-10-19T01:50:58.525Z,3.53
2022-10-19T01:53:29.676Z,3.10
2022-10-19T01:55:59.468Z,3.07
2022-10-19T01:58:30.013Z,3.50
2022-10-19T02:01:04.507Z,3.17
2022-10-19T02:03:33.879Z,3.40
2022-10-19T02:06:05.176Z,3.60
2022-10-19T02:08:40.094Z,2.90
2022-10-19T02:11:08.050Z,3.37
2022-10-19T02:13:37.287Z,3.70
2022-10-19T02:16:11.038Z,4.20
2022-10-19T02:18:43.740Z,3.93
2022-10-19T02:21:11.992Z,4.47
2022-10-19T02:23:40.243Z,4.07
2022-10-19T02:26:09.176Z,4.07
2022-10-19T02:28:37.775Z,3.93
2022-10-19T02:31:07.442Z,4.30
2022-10-19T02:33:35.377Z,4.03
2022-10-19T02:36:03.744Z,5.00
2022-10-19T02:38:31.784Z,3.70
2022-10-19T02:41:06.905Z,3.33
2022-10-19T02:43:38.211Z,3.60
2022-10-19T02:46:11.688Z,3.60
2022-10-19T02:48:42.861Z,3.73
2022-10-19T02:51:29.133Z,3.83
2022-10-19T02:53:58.993Z,3.80
2022-10-19T02:56:29.587Z,3.50
2022-10-19T02:58:57.874Z,3.17
2022-10-19T03:01:27.190Z,3.77
2022-10-19T03:03:54.964Z,3.63
2022-10-19T03:06:22.810Z,4.73
2022-10-19T03:08:50.608Z,4.30
2022-10-19T03:11:18.484Z,3.83
2022-10-19T03:16:15.146Z,4.70
2022-10-19T03:18:44.300Z,4.37
2022-10-19T03:21:13.993Z,4.77
2022-10-19T03:23:42.437Z,4.20
2022-10-19T03:26:14.614Z,4.63
2022-10-19T03:28:42.666Z,5.03
2022-10-19T03:31:10.552Z,5.33
2022-10-19T03:33:38.492Z,6.90
2022-10-19T03:36:23.213Z,5.33
2022-10-19T03:38:52.661Z,6.93
2022-10-19T03:41:21.455Z,6.20
2022-10-19T03:43:49.366Z,7.93
2022-10-19T03:46:17.618Z,7.83
2022-10-19T03:48:45.827Z,7.90
2022-10-19T03:51:15.376Z,7.00
2022-10-19T03:53:45.058Z,6.17
2022-10-19T03:56:15.008Z,6.17
2022-10-19T03:58:44.703Z,6.30
2022-10-19T04:01:14.389Z,5.67
2022-10-19T04:03:42.372Z,5.20
2022-10-19T04:06:14.007Z,5.47
2022-10-19T04:08:45.921Z,6.10
2022-10-19T04:11:16.060Z,5.97
2022-10-19T04:13:43.876Z,5.40
2022-10-19T04:16:14.996Z,5.37
2022-10-19T04:18:42.905Z,5.40
2022-10-19T04:21:22.332Z,5.60
2022-10-19T04:23:52.462Z,4.97
2022-10-19T04:26:20.904Z,4.67
2022-10-19T04:28:48.915Z,5.00
2022-10-19T04:31:17.061Z,4.87
2022-10-19T04:36:13.739Z,4.53
2022-10-19T04:38:41.572Z,5.77
2022-10-19T04:41:12.974Z,5.40
2022-10-19T04:43:41.161Z,5.30
2022-10-19T04:46:10.914Z,4.70
2022-10-19T04:48:40.500Z,4.90
2022-10-19T04:51:09.055Z,5.97
2022-10-19T04:53:38.743Z,5.37
2022-10-19T04:56:07.962Z,5.33
2022-10-19T04:58:37.100Z,5.90
2022-10-19T05:01:09.654Z,6.37
2022-10-19T05:03:37.545Z,5.37
2022-10-19T05:06:05.685Z,5.63
2022-10-19T05:08:33.695Z,5.30
2022-10-19T05:11:05.944Z,5.10
2022-10-19T05:13:34.170Z,5.60
2022-10-19T05:16:05.798Z,5.60
2022-10-19T05:18:33.879Z,6.00
2022-10-19T05:21:03.279Z,6.50
2022-10-19T05:26:05.794Z,6.03
2022-10-19T05:28:34.023Z,6.33
2022-10-19T05:31:11.798Z,6.27
2022-10-19T05:33:40.496Z,6.03
2022-10-19T05:36:13.714Z,6.13
2022-10-19T05:38:41.673Z,6.30
2022-10-19T05:41:09.694Z,6.53
2022-10-19T05:43:37.703Z,5.90
2022-10-19T05:46:06.968Z,5.80
2022-10-19T05:48:36.450Z,6.60
2022-10-19T05:51:06.442Z,6.77
2022-10-19T05:53:36.349Z,6.00
2022-10-19T05:56:05.906Z,6.37
2022-10-19T05:58:34.208Z,6.13
2022-10-19T06:01:03.236Z,6.80
2022-10-19T06:03:31.680Z,6.70
2022-10-19T06:06:04.096Z,6.57
2022-10-19T06:08:32.087Z,6.60
2022-10-19T06:11:06.887Z,6.83
2022-10-19T06:13:34.831Z,6.60
2022-10-19T06:16:03.127Z,7.17
2022-10-19T06:18:31.329Z,6.83
2022-10-19T06:21:05.038Z,7.13
2022-10-19T06:23:33.627Z,7.50
2022-10-19T06:26:04.042Z,7.60
2022-10-19T06:28:32.007Z,7.97
2022-10-19T06:31:00.164Z,7.73
2022-10-19T06:33:30.019Z,8.10
2022-10-19T06:35:58.289Z,7.50
2022-10-19T06:38:27.507Z,7.17
2022-10-19T06:40:59.684Z,8.03
2022-10-19T06:43:27.544Z,8.37
2022-10-19T06:45:56.253Z,8.03
2022-10-19T06:48:24.616Z,8.40
2022-10-19T06:50:57.777Z,8.73
2022-10-19T06:53:29.045Z,8.20
2022-10-19T06:55:59.087Z,9.37
2022-10-19T06:58:29.501Z,8.23
2022-10-19T07:00:58.271Z,9.40
2022-10-19T07:03:28.911Z,8.60
2022-10-19T07:05:59.075Z,9.27
2022-10-19T07:08:29.971Z,9.20
2022-10-19T07:10:59.667Z,10.37
2022-10-19T07:13:28.369Z,9.13
2022-10-19T07:15:59.221Z,9.43
2022-10-19T07:18:27.399Z,8.93
2022-10-19T07:20:56.486Z,9.97
2022-10-19T07:23:29.693Z,10.07
2022-10-19T07:26:01.553Z,9.67
2022-10-19T07:28:29.753Z,9.30
2022-10-19T07:30:57.945Z,11.10
2022-10-19T07:33:25.874Z,10.30
2022-10-19T07:36:00.486Z,10.97
2022-10-19T07:38:31.853Z,10.43
2022-10-19T07:41:05.282Z,11.37
2022-10-19T07:43:34.009Z,10.77
2022-10-19T07:46:03.894Z,11.43
2022-10-19T07:48:31.773Z,10.60
2022-10-19T07:51:01.743Z,10.13
2022-10-19T07:53:30.973Z,9.20
2022-10-19T07:56:06.838Z,9.03
2022-10-19T07:58:35.434Z,9.50
2022-10-19T08:01:04.199Z,9.60
2022-10-19T08:04:14.273Z,9.30
2022-10-19T08:06:20.913Z,10.40
2022-10-19T08:08:50.876Z,10.30
2022-10-19T08:11:21.303Z,10.30
2022-10-19T08:13:49.755Z,10.83
2022-10-19T08:16:24.310Z,11.67
2022-10-19T08:18:52.971Z,12.07
2022-10-19T08:21:21.122Z,12.67
2022-10-19T08:23:50.708Z,13.00
2022-10-19T08:26:18.664Z,12.43
2022-10-19T08:28:46.648Z,12.23
2022-10-19T08:31:16.769Z,12.33
2022-10-19T08:33:45.335Z,12.97
2022-10-19T08:36:14.754Z,12.77
2022-10-19T08:38:44.737Z,12.80
2022-10-19T08:41:27.717Z,12.57
2022-10-19T08:44:17.197Z,12.37
2022-10-19T08:46:53.836Z,11.43
2022-10-19T08:49:25.497Z,10.87
2022-10-19T08:51:57.488Z,10.50
2022-10-19T08:54:30.129Z,10.77
2022-10-19T08:57:14.506Z,9.23
2022-10-19T08:59:50.297Z,9.33
2022-10-19T09:02:23.881Z,9.30
2022-10-19T09:04:58.736Z,7.40
2022-10-19T09:07:30.016Z,7.80
2022-10-19T09:10:02.385Z,7.63
2022-10-19T09:12:43.707Z,6.93
2022-10-19T09:15:16.012Z,7.20
2022-10-19T09:17:44.321Z,7.27
2022-10-19T09:20:18.759Z,7.20
2022-10-19T09:22:49.147Z,7.30
2022-10-19T09:25:21.219Z,7.63
2022-10-19T09:28:04.490Z,7.30
2022-10-19T09:30:36.374Z,7.97
2022-10-19T09:33:04.831Z,7.53
2022-10-19T09:35:42.761Z,7.50
2022-10-19T09:38:16.732Z,7.73
2022-10-19T09:40:50.487Z,7.17
2022-10-19T09:43:21.969Z,7.30
2022-10-19T09:45:54.218Z,6.80
2022-10-19T09:48:30.448Z,6.23
2022-10-19T09:51:01.448Z,5.50
2022-10-19T09:53:34.991Z,5.23
2022-10-19T09:56:07.657Z,4.20
2022-10-19T09:58:37.162Z,4.00
2022-10-19T10:01:05.072Z,3.60
2022-10-19T10:03:35.356Z,4.07
2022-10-19T10:06:08.405Z,3.77
2022-10-19T10:08:39.313Z,3.70
2022-10-19T10:11:12.407Z,3.17
2022-10-19T10:13:44.601Z,3.40
2022-10-19T10:16:16.399Z,3.50
2022-10-19T10:18:54.308Z,3.07
2022-10-19T10:21:25.704Z,2.77
2022-10-19T10:24:05.595Z,2.33
2022-10-19T10:26:38.680Z,2.30
2022-10-19T10:29:18.398Z,2.30
2022-10-19T10:31:48.683Z,2.00
2022-10-19T10:34:29.938Z,1.80
2022-10-19T10:37:09.349Z,2.10
2022-10-19T10:39:42.555Z,1.90
2022-10-19T10:42:15.666Z,1.50
2022-10-19T10:44:52.595Z,1.70
2022-10-19T10:47:22.213Z,1.83
2022-10-19T10:49:57.629Z,1.90
2022-10-19T10:52:29.103Z,1.50
2022-10-19T10:55:03.701Z,1.47
2022-10-19T10:57:35.661Z,1.90
2022-10-19T11:00:11.587Z,1.80
2022-10-19T11:02:50.684Z,1.40
2022-10-19T11:05:23.770Z,1.43
2022-10-19T11:07:56.029Z,1.73
2022-10-19T11:10:29.665Z,2.07
2022-10-19T11:13:06.713Z,1.40
2022-10-19T11:15:41.650Z,1.60
2022-10-19T11:18:19.568Z,1.80
2022-10-19T11:20:55.001Z,1.43
2022-10-19T11:23:32.315Z,1.33
2022-10-19T11:26:11.876Z,1.90
2022-10-19T11:28:55.501Z,1.97
2022-10-19T11:31:37.143Z,2.00
2022-10-19T11:34:18.066Z,1.63
2022-10-19T11:36:54.929Z,1.80
2022-10-19T11:39:41.622Z,1.87
2022-10-19T11:42:17.043Z,2.13
2022-10-19T11:44:59.316Z,2.00
2022-10-19T11:47:37.620Z,1.97
2022-10-19T11:50:23.255Z,1.93
2022-10-19T11:53:01.512Z,1.60
2022-10-19T11:55:40.507Z,1.83
2022-10-19T11:58:34.470Z,1.60
2022-10-19T12:01:17.658Z,2.00
2022-10-19T12:04:28.455Z,1.80
2022-10-19T12:07:07.257Z,1.87
2022-10-19T12:09:44.565Z,1.67
2022-10-19T12:12:30.797Z,1.60
2022-10-19T12:15:17.008Z,1.80
2022-10-19T12:17:48.846Z,1.60
2022-10-19T12:20:22.987Z,1.60
2022-10-19T12:22:52.453Z,1.70
2022-10-19T12:25:23.956Z,2.17
2022-10-19T12:27:54.851Z,1.40
2022-10-19T12:30:28.725Z,1.50
2022-10-19T12:33:15.825Z,1.53
2022-10-19T12:36:00.492Z,1.40
2022-10-19T12:38:40.966Z,1.53
2022-10-19T12:41:23.471Z,1.60
2022-10-19T12:44:02.987Z,1.80
2022-10-19T12:46:41.434Z,1.50
2022-10-19T12:49:47.440Z,1.57
2022-10-19T12:52:18.191Z,1.40
2022-10-19T12:54:47.552Z,1.80
2022-10-19T12:57:27.265Z,1.93
2022-10-19T13:00:05.415Z,1.73
2022-10-19T13:02:36.438Z,1.90
2022-10-19T13:05:07.912Z,1.70
2022-10-19T13:07:37.528Z,1.73
2022-10-19T13:10:19.659Z,2.30
2022-10-19T13:12:48.844Z,2.23
2022-10-19T13:15:50.410Z,1.97
2022-10-19T13:19:06.950Z,2.03
2022-10-19T13:22:25.819Z,2.67
2022-10-19T13:25:33.166Z,1.90
2022-10-19T13:28:18.875Z,1.50
2022-10-19T13:31:07.051Z,1.60
2022-10-19T13:33:51.963Z,1.70
2022-10-19T13:36:21.394Z,1.63
2022-10-19T13:39:33.485Z,1.60
2022-10-19T13:42:01.465Z,1.53
2022-10-19T13:44:35.596Z,1.70
2022-10-19T13:47:34.614Z,1.93
2022-10-19T13:50:23.675Z,1.80
2022-10-19T13:53:22.722Z,1.90
2022-10-19T13:56:03.158Z,1.90
2022-10-19T13:59:09.402Z,1.53
2022-10-19T14:01:52.965Z,1.70
2022-10-19T14:04:29.602Z,1.70
2022-10-19T14:07:02.401Z,2.00
2022-10-19T14:09:48.544Z,1.80
2022-10-19T14:12:23.897Z,1.73
2022-10-19T14:14:53.882Z,1.67
2022-10-19T14:17:25.553Z,1.80
2022-10-19T14:19:57.034Z,2.10
2022-10-19T14:22:29.853Z,1.50
2022-10-19T14:25:18.806Z,1.83
2022-10-19T14:27:47.927Z,1.60
2022-10-19T14:30:24.234Z,1.83
2022-10-19T14:32:56.883Z,1.77
2022-10-19T14:35:30.649Z,2.00
2022-10-19T14:37:59.402Z,1.70
2022-10-19T14:40:29.580Z,1.80
2022-10-19T14:42:58.859Z,2.00
2022-10-19T14:45:28.587Z,1.77
2022-10-19T14:48:04.016Z,1.53
2022-10-19T14:50:40.849Z,1.90
2022-10-19T14:53:23.381Z,2.10
2022-10-19T14:55:56.187Z,2.37
2022-10-19T14:58:27.268Z,2.30
2022-10-19T15:00:56.395Z,2.27
2022-10-19T15:03:28.598Z,3.90
2022-10-19T15:06:00.035Z,9.50
2022-10-19T15:08:37.540Z,5.33
2022-10-19T15:11:07.495Z,3.67
2022-10-19T15:13:41.479Z,3.20
2022-10-19T15:16:29.759Z,2.83
2022-10-19T15:19:04.368Z,1.90
2022-10-19T15:21:33.504Z,2.10
2022-10-19T15:24:10.247Z,2.53
2022-10-19T15:26:38.409Z,2.10
2022-10-19T15:29:10.787Z,2.20
2022-10-19T15:31:39.040Z,2.20
2022-10-19T15:34:24.518Z,2.10
2022-10-19T15:36:57.877Z,1.90
2022-10-19T15:39:38.966Z,2.00
2022-10-19T15:42:34.620Z,2.13
2022-10-19T15:45:06.490Z,2.10
2022-10-19T15:47:34.969Z,2.03
2022-10-19T15:50:05.049Z,2.10
2022-10-19T15:52:34.850Z,1.90
2022-10-19T15:55:03.168Z,1.90
2022-10-19T15:57:34.692Z,2.23
2022-10-19T16:00:09.214Z,1.80
2022-10-19T16:02:39.066Z,2.20
2022-10-19T16:05:11.958Z,2.00
2022-10-19T16:07:42.131Z,1.93
2022-10-19T16:10:17.137Z,1.97
2022-10-19T16:12:45.750Z,2.10
2022-10-19T16:15:13.936Z,1.60
2022-10-19T16:17:52.557Z,2.00
2022-10-19T16:20:22.621Z,1.80
2022-10-19T16:22:50.651Z,1.93
2022-10-19T16:25:19.140Z,1.57
2022-10-19T16:27:47.127Z,1.73
2022-10-19T16:30:15.614Z,1.93
2022-10-19T16:32:45.969Z,2.13
2022-10-19T16:35:14.035Z,1.80
2022-10-19T16:37:43.250Z,2.00
2022-10-19T16:40:11.986Z,1.70
2022-10-19T16:42:40.062Z,1.87
2022-10-19T16:45:09.470Z,1.67
2022-10-19T16:47:37.712Z,1.70
2022-10-19T16:50:13.483Z,1.90
2022-10-19T16:52:43.010Z,1.67
2022-10-19T16:55:11.559Z,1.70
2022-10-19T16:57:39.782Z,2.40
2022-10-19T17:00:10.146Z,1.80
2022-10-19T17:02:41.989Z,2.10
2022-10-19T17:05:12.260Z,1.90
2022-10-19T17:07:40.190Z,2.40
2022-10-19T17:10:10.391Z,1.57
2022-10-19T17:12:41.749Z,1.43
2022-10-19T17:15:37.535Z,1.90
2022-10-19T17:17:59.028Z,1.63
2022-10-19T17:20:26.992Z,1.50
2022-10-19T17:22:54.940Z,1.90
2022-10-19T17:25:24.274Z,1.70
2022-10-19T17:27:52.413Z,1.80
2022-10-19T17:30:20.289Z,1.90
2022-10-19T17:32:48.260Z,2.20
2022-10-19T17:35:16.290Z,2.30
2022-10-19T17:37:44.261Z,2.20
2022-10-19T17:40:12.817Z,2.20
2022-10-19T17:42:42.067Z,2.00
2022-10-19T17:45:11.361Z,2.37
2022-10-19T17:47:39.659Z,2.30
2022-10-19T17:50:08.552Z,2.23
2022-10-19T17:52:36.519Z,2.37
2022-10-19T17:55:12.159Z,2.37
2022-10-19T17:57:41.762Z,2.43
2022-10-19T18:00:10.371Z,2.20
2022-10-19T18:02:38.274Z,2.50
2022-10-19T18:05:06.769Z,2.40
2022-10-19T18:07:35.017Z,2.03
2022-10-19T18:10:03.111Z,2.33
2022-10-19T18:12:31.017Z,2.10
2022-10-19T18:15:00.207Z,2.53
2022-10-19T18:17:28.348Z,2.50
2022-10-19T18:19:56.255Z,2.50
2022-10-19T18:22:24.187Z,2.63
2022-10-19T18:24:52.045Z,2.60
2022-10-19T18:27:19.904Z,2.60
2022-10-19T18:29:47.893Z,2.93
2022-10-19T18:32:17.299Z,2.70
2022-10-19T18:34:45.416Z,2.90
2022-10-19T18:37:13.421Z,2.53
2022-10-19T18:39:42.241Z,3.43
2022-10-19T18:42:12.783Z,2.80
2022-10-19T18:44:41.158Z,2.70
2022-10-19T18:47:09.118Z,2.80
2022-10-19T18:49:38.618Z,2.70
2022-10-19T18:52:06.591Z,2.70
2022-10-19T18:54:34.575Z,3.23
2022-10-19T18:57:02.507Z,2.80
2022-10-19T18:59:30.427Z,3.40
2022-10-19T19:01:58.248Z,3.00
2022-10-19T19:04:26.223Z,3.30
2022-10-19T19:06:55.452Z,3.00
2022-10-19T19:09:23.397Z,2.80
2022-10-19T19:11:52.106Z,3.37
2022-10-19T19:14:22.065Z,3.10
2022-10-19T19:16:50.009Z,3.07
2022-10-19T19:19:19.639Z,3.10
2022-10-19T19:21:49.100Z,2.87
2022-10-19T19:24:19.833Z,3.17
2022-10-19T19:26:50.062Z,3.33
2022-10-19T19:29:18.897Z,3.40
2022-10-19T19:31:47.248Z,3.40
2022-10-19T19:34:15.397Z,3.00
2022-10-19T19:36:47.808Z,3.40
2022-10-19T19:39:20.050Z,3.40
2022-10-19T19:41:48.771Z,3.53
2022-10-19T19:44:17.144Z,3.20
2022-10-19T19:46:45.047Z,3.60
2022-10-19T19:49:13.122Z,3.40
2022-10-19T19:51:41.120Z,3.10
2022-10-19T19:54:09.233Z,3.37
2022-10-19T19:56:39.643Z,3.03
2022-10-19T19:59:07.474Z,3.10
2022-10-19T20:01:37.397Z,3.10
2022-10-19T20:04:06.468Z,3.87
2022-10-19T20:06:36.594Z,3.60
2022-10-19T20:09:06.086Z,3.60
2022-10-19T20:11:37.150Z,3.77
2022-10-19T20:14:09.088Z,3.67
2022-10-19T20:16:37.315Z,3.90
2022-10-19T20:19:08.440Z,3.73
2022-10-19T20:21:36.425Z,3.70
2022-10-19T20:24:04.946Z,3.67
2022-10-19T20:26:33.476Z,3.73
2022-10-19T20:29:02.978Z,3.57
2022-10-19T20:31:33.691Z,3.60
2022-10-19T20:34:01.622Z,3.70
2022-10-19T20:36:29.443Z,3.40
2022-10-19T20:38:59.529Z,3.70
2022-10-19T20:41:29.017Z,3.60
2022-10-19T20:43:57.357Z,3.77
2022-10-19T20:46:27.610Z,3.97
2022-10-19T20:48:59.673Z,4.10
2022-10-19T20:51:32.119Z,3.50
2022-10-19T20:54:01.969Z,3.80
2022-10-19T20:56:32.418Z,4.20
2022-10-19T21:01:31.962Z,3.80
2022-10-19T21:04:03.382Z,3.60
2022-10-19T21:06:32.886Z,3.50
2022-10-19T21:09:01.142Z,4.03
2022-10-19T21:11:30.631Z,3.90
2022-10-19T21:14:00.269Z,3.83
2022-10-19T21:16:30.280Z,4.43
2022-10-19T21:19:00.412Z,3.93
2022-10-19T21:21:32.029Z,4.10
2022-10-19T21:24:02.634Z,5.40
2022-10-19T21:26:30.467Z,4.60
2022-10-19T21:28:58.648Z,4.20
2022-10-19T21:31:27.736Z,4.33
2022-10-19T21:33:56.160Z,4.03
2022-10-19T21:36:26.060Z,4.40
2022-10-19T21:38:55.253Z,4.40
2022-10-19T21:41:26.203Z,4.17
2022-10-19T21:43:54.610Z,4.50
2022-10-19T21:46:23.857Z,4.30
2022-10-19T21:48:52.384Z,4.07
2022-10-19T21:51:31.622Z,4.40
2022-10-19T21:54:01.514Z,4.10
2022-10-19T21:56:29.567Z,3.77
2022-10-19T21:58:58.327Z,4.63
2022-10-19T22:01:28.697Z,3.77
2022-10-19T22:03:57.600Z,4.00
2022-10-19T22:06:26.099Z,4.13
2022-10-19T22:08:54.899Z,4.30
2022-10-19T22:11:25.285Z,4.33
2022-10-19T22:13:55.760Z,3.93
2022-10-19T22:16:24.505Z,4.50
2022-10-19T22:18:53.332Z,4.13
2022-10-19T22:21:23.548Z,4.30
2022-10-19T22:23:53.439Z,4.63
2022-10-19T22:26:23.779Z,4.10
2022-10-19T22:28:54.057Z,4.97
2022-10-19T22:31:22.521Z,4.43
2022-10-19T22:33:50.374Z,4.90
2022-10-19T22:36:18.467Z,4.73
2022-10-19T22:38:46.415Z,4.47
2022-10-19T22:41:14.196Z,4.77
2022-10-19T22:43:42.095Z,4.37
2022-10-19T22:46:11.491Z,4.60
2022-10-19T22:48:39.314Z,5.00
2022-10-19T22:51:07.313Z,4.57
2022-10-19T22:53:35.142Z,4.87
2022-10-19T22:56:02.965Z,5.00
2022-10-19T22:58:30.885Z,4.50
2022-10-19T23:01:14.879Z,4.80
2022-10-19T23:03:44.815Z,4.60
2022-10-19T23:06:14.801Z,5.00
2022-10-19T23:08:43.272Z,4.40
2022-10-19T23:11:11.365Z,4.87
2022-10-19T23:13:39.263Z,4.83
2022-10-19T23:16:07.687Z,4.37
2022-10-19T23:18:37.364Z,5.00
2022-10-19T23:21:09.472Z,4.80
2022-10-19T23:23:38.173Z,4.70
2022-10-19T23:26:08.146Z,4.97
2022-10-19T23:28:37.919Z,4.27
2022-10-19T23:31:08.389Z,4.03
2022-10-19T23:33:37.040Z,4.80
2022-10-19T23:36:10.315Z,4.97
2022-10-19T23:38:38.203Z,4.70
2022-10-19T23:41:06.269Z,4.53
2022-10-19T23:46:02.703Z,5.30
2022-10-19T23:48:30.912Z,4.70
2022-10-19T23:51:00.717Z,5.27
2022-10-19T23:53:34.670Z,4.90
2022-10-19T23:56:07.199Z,5.47
2022-10-19T23:58:35.525Z,4.33
